Time;durP1;ratioP1;P1;durP2;ratioP2;P2;SDS_P1;SDS_P2;PMS_P1;PMS_P2;Temp;Humidity;BMP_temperature;BMP_pressure;BME280_temperature;BME280_humidity;BME280_pressure;Samples;Min_cycle;Max_cycle;Signal;HPM_P1;HPM_P2
2022/07/23 00:02:00;;;;;;;6.95;6.22;;;24.60;68.10;;;;;;4971036;28;20042;-84
2022/07/23 00:04:25;;;;;;;5.75;5.25;;;24.60;68.00;;;;;;4968272;28;20038;-81
2022/07/23 00:06:51;;;;;;;6.25;5.75;;;24.50;68.00;;;;;;4951463;29;20061;-81
2022/07/23 00:09:16;;;;;;;6.18;5.32;;;24.60;67.90;;;;;;4952483;29;20063;-81
2022/07/23 00:11:42;;;;;;;7.72;5.65;;;24.50;67.90;;;;;;4970808;28;20031;-83
2022/07/23 00:14:08;;;;;;;5.32;4.88;;;24.50;67.90;;;;;;4949638;29;20023;-81
2022/07/23 00:16:33;;;;;;;5.85;5.35;;;24.40;67.80;;;;;;4970507;28;20062;-82
2022/07/23 00:19:01;;;;;;;5.65;5.15;;;24.40;68.40;;;;;;5002167;28;20034;-81
2022/07/23 00:21:26;;;;;;;6.20;5.13;;;24.40;67.80;;;;;;4988546;28;20027;-82
2022/07/23 00:23:52;;;;;;;5.97;5.38;;;24.30;67.80;;;;;;4986452;28;20035;-81
2022/07/23 00:26:18;;;;;;;5.88;5.28;;;24.30;67.80;;;;;;4976601;28;20073;-82
2022/07/23 00:28:43;;;;;;;6.07;5.00;;;24.20;67.50;;;;;;4987707;28;20066;-82
2022/07/23 00:31:09;;;;;;;5.63;5.13;;;24.20;67.40;;;;;;4987265;28;20027;-83
2022/07/23 00:33:35;;;;;;;5.40;4.95;;;24.10;67.50;;;;;;4984692;28;20026;-82
2022/07/23 00:36:00;;;;;;;5.75;4.85;;;24.10;67.50;;;;;;4978821;28;20087;-83
2022/07/23 00:38:26;;;;;;;5.28;4.82;;;24.10;67.50;;;;;;4966815;29;20042;-82
2022/07/23 00:40:51;;;;;;;5.57;5.07;;;24.10;67.70;;;;;;4946201;29;20035;-82
2022/07/23 00:43:20;;;;;;;7.05;5.72;;;24.10;67.80;;;;;;4962393;29;20031;-83
2022/07/23 00:45:46;;;;;;;4.90;4.50;;;24.00;68.00;;;;;;4966287;28;20087;-83
2022/07/23 00:48:11;;;;;;;7.63;6.13;;;24.10;68.00;;;;;;4975677;28;20119;-83
2022/07/23 00:50:37;;;;;;;6.60;5.47;;;24.00;68.20;;;;;;5000560;28;20027;-83
2022/07/23 00:53:03;;;;;;;7.00;5.20;;;24.00;68.40;;;;;;5004417;28;20042;-81
2022/07/23 00:55:29;;;;;;;5.65;5.15;;;24.00;68.30;;;;;;4988614;28;20033;-81
2022/07/23 00:57:56;;;;;;;8.25;6.43;;;24.10;68.00;;;;;;4966830;28;20054;-82
2022/07/23 01:00:22;;;;;;;5.80;5.30;;;24.10;67.80;;;;;;4986545;28;20030;-81
2022/07/23 01:02:47;;;;;;;5.95;5.05;;;24.20;67.90;;;;;;4984672;28;20037;-84
2022/07/23 01:05:13;;;;;;;5.57;5.03;;;24.20;67.90;;;;;;4984326;28;20026;-80
2022/07/23 01:07:40;;;;;;;6.20;5.60;;;24.20;67.80;;;;;;4963731;29;20063;-80
2022/07/23 01:10:30;;;;;;;6.00;5.40;;;24.20;67.90;;;;;;4952359;29;20027;-82
2022/07/23 01:12:52;;;;;;;5.78;5.15;;;24.10;67.90;;;;;;4963633;29;20027;-83
2022/07/23 01:15:17;;;;;;;6.72;5.78;;;24.20;67.80;;;;;;4962116;28;20114;-83
2022/07/23 01:17:43;;;;;;;12.38;6.15;;;24.20;67.80;;;;;;4977034;28;20023;-82
2022/07/23 01:20:09;;;;;;;7.03;6.32;;;24.20;67.90;;;;;;4985149;28;20023;-83
2022/07/23 01:22:35;;;;;;;7.13;6.40;;;24.20;68.60;;;;;;4979349;28;20019;-82
2022/07/23 01:25:00;;;;;;;10.07;7.07;;;24.20;69.10;;;;;;4978075;28;20484;-82
2022/07/23 01:27:26;;;;;;;7.80;7.07;;;24.20;69.40;;;;;;4981743;28;20019;-85
2022/07/23 01:29:52;;;;;;;10.73;6.88;;;24.20;69.40;;;;;;4964818;28;20027;-83
2022/07/23 01:32:18;;;;;;;11.30;6.93;;;24.20;67.20;;;;;;4980940;28;20373;-84
2022/07/23 01:34:44;;;;;;;18.90;6.72;;;24.20;66.40;;;;;;4980544;28;20082;-83
2022/07/23 01:37:09;;;;;;;16.05;6.72;;;24.00;66.20;;;;;;4987292;28;20027;-82
2022/07/23 01:39:35;;;;;;;14.38;5.60;;;23.60;67.70;;;;;;4990065;28;20165;-83
2022/07/23 01:42:00;;;;;;;9.60;4.85;;;23.10;67.90;;;;;;4993283;28;20031;-83
2022/07/23 01:44:26;;;;;;;7.50;4.65;;;22.80;68.10;;;;;;4974603;28;20026;-83
2022/07/23 01:46:52;;;;;;;11.68;4.22;;;22.60;69.60;;;;;;4974264;28;20022;-83
2022/07/23 01:49:17;;;;;;;7.10;4.20;;;22.30;70.70;;;;;;4981888;28;20058;-84
2022/07/23 01:51:59;;;;;;;7.15;4.78;;;22.10;72.60;;;;;;4999518;28;20042;-84
2022/07/23 01:54:28;;;;;;;5.03;4.53;;;21.90;73.70;;;;;;4998421;28;20026;-83
2022/07/23 01:56:53;;;;;;;5.63;4.97;;;21.80;75.30;;;;;;4972888;28;20034;-83
2022/07/23 01:59:19;;;;;;;6.70;5.47;;;21.70;76.30;;;;;;4960508;28;20023;-83
2022/07/23 02:01:45;;;;;;;9.40;4.75;;;21.50;77.60;;;;;;4960345;29;20121;-84
2022/07/23 02:04:11;;;;;;;7.00;5.03;;;21.50;78.30;;;;;;4948405;29;20099;-81
2022/07/23 02:06:36;;;;;;;5.80;5.20;;;21.30;79.20;;;;;;4975903;28;20027;-81
2022/07/23 02:09:02;;;;;;;8.13;5.10;;;21.20;80.40;;;;;;4975774;28;20071;-81
2022/07/23 02:11:28;;;;;;;9.40;5.57;;;21.10;82.60;;;;;;4960132;29;20023;-81
2022/07/23 02:13:54;;;;;;;6.78;6.05;;;20.80;87.90;;;;;;4976680;28;20015;-82
2022/07/23 02:16:20;;;;;;;6.65;5.97;;;20.40;90.50;;;;;;4962611;28;20046;-82
2022/07/23 02:18:46;;;;;;;31.30;6.53;;;20.10;92.60;;;;;;5003284;28;20026;-81
2022/07/23 02:21:12;;;;;;;8.57;5.03;;;19.80;95.00;;;;;;4992519;28;20055;-81
2022/07/23 02:23:38;;;;;;;8.57;5.18;;;19.70;96.60;;;;;;4985874;28;20023;-82
2022/07/23 02:26:04;;;;;;;7.10;4.68;;;19.40;98.60;;;;;;4990175;28;20023;-81
2022/07/23 02:28:30;;;;;;;11.07;6.00;;;19.10;99.90;;;;;;4993052;28;20044;-81
2022/07/23 02:30:56;;;;;;;6.03;5.32;;;;;;;;;;4995181;28;20066;-83
2022/07/23 02:33:21;;;;;;;6.35;5.43;;;18.30;99.90;;;;;;4995688;28;20039;-83
2022/07/23 02:35:47;;;;;;;7.65;5.68;;;17.90;99.90;;;;;;4995478;28;20065;-83
2022/07/23 02:38:13;;;;;;;6.18;5.25;;;17.60;99.90;;;;;;4995424;28;20038;-84
2022/07/23 02:40:38;;;;;;;7.38;6.13;;;17.50;99.90;;;;;;4996599;28;20019;-84
2022/07/23 02:43:04;;;;;;;6.82;6.13;;;17.40;99.90;;;;;;4996583;28;20093;-84
2022/07/23 02:45:30;;;;;;;7.18;5.13;;;17.30;99.90;;;;;;4996842;28;20019;-83
2022/07/23 02:47:55;;;;;;;6.38;5.78;;;17.40;99.90;;;;;;4998095;28;20067;-83
2022/07/23 02:50:21;;;;;;;7.30;6.53;;;17.30;99.90;;;;;;4997375;28;20086;-82
2022/07/23 02:52:47;;;;;;;7.32;6.63;;;17.40;99.90;;;;;;4996250;28;20027;-83
2022/07/23 02:55:13;;;;;;;8.02;7.22;;;17.60;99.90;;;;;;4980034;28;20026;-84
2022/07/23 02:57:38;;;;;;;8.52;6.82;;;17.70;99.90;;;;;;4997553;28;20050;-82
2022/07/23 03:00:06;;;;;;;6.45;5.85;;;17.90;99.90;;;;;;4961428;29;20151;-83
2022/07/23 03:02:32;;;;;;;6.35;5.75;;;18.00;99.90;;;;;;4956425;28;20054;-84
2022/07/23 03:04:58;;;;;;;6.20;5.57;;;18.10;99.90;;;;;;4975276;28;20082;-83
2022/07/23 03:07:24;;;;;;;5.40;5.00;;;18.20;99.90;;;;;;5000004;28;20117;-83
2022/07/23 03:09:49;;;;;;;6.20;5.60;;;18.30;99.90;;;;;;4981312;28;20427;-84
2022/07/23 03:12:15;;;;;;;6.72;5.25;;;18.30;99.90;;;;;;4964176;29;20484;-83
2022/07/23 03:14:41;;;;;;;5.10;4.60;;;18.30;99.90;;;;;;4964953;28;20035;-82
2022/07/23 03:17:07;;;;;;;4.68;4.28;;;18.40;99.90;;;;;;4971799;28;20042;-84
2022/07/23 03:19:33;;;;;;;4.80;4.40;;;18.50;99.90;;;;;;4994965;28;20034;-83
2022/07/23 03:21:59;;;;;;;4.47;4.13;;;18.60;99.90;;;;;;5003266;28;20029;-83
2022/07/23 03:24:53;;;;;;;4.78;4.38;;;18.70;99.90;;;;;;4987372;28;20030;-82
2022/07/23 03:27:11;;;;;;;4.95;4.55;;;18.70;99.90;;;;;;4971742;29;20054;-82
2022/07/23 03:29:36;;;;;;;4.88;4.47;;;18.80;99.90;;;;;;4954855;29;20341;-84
2022/07/23 03:32:03;;;;;;;5.07;4.40;;;18.80;99.90;;;;;;4978770;28;20029;-84
2022/07/23 03:34:29;;;;;;;5.13;4.68;;;18.90;99.90;;;;;;4985661;28;20102;-84
2022/07/23 03:36:55;;;;;;;4.88;4.47;;;18.90;99.90;;;;;;4968396;28;20567;-84
2022/07/23 03:39:20;;;;;;;4.28;3.97;;;18.90;99.90;;;;;;4997776;28;20066;-84
2022/07/23 03:41:46;;;;;;;5.25;4.82;;;19.00;99.90;;;;;;4980087;28;20090;-84
2022/07/23 03:44:12;;;;;;;4.95;4.53;;;18.90;99.90;;;;;;4984443;28;20042;-84
2022/07/23 03:46:37;;;;;;;5.47;4.97;;;18.90;99.90;;;;;;4954680;28;20027;-84
2022/07/23 03:49:03;;;;;;;6.45;5.85;;;19.00;99.90;;;;;;4970615;28;20058;-81
2022/07/23 03:51:29;;;;;;;5.47;5.03;;;19.00;99.90;;;;;;4986410;28;20027;-83
2022/07/23 03:53:55;;;;;;;6.07;5.57;;;19.00;99.90;;;;;;4978858;28;20026;-82
2022/07/23 03:56:23;;;;;;;5.57;5.10;;;19.00;99.90;;;;;;4961909;28;20067;-83
2022/07/23 03:58:48;;;;;;;6.20;5.68;;;19.00;99.90;;;;;;4963125;29;20066;-82
2022/07/23 04:01:14;;;;;;;5.18;4.78;;;19.00;99.90;;;;;;4968127;29;20039;-83
2022/07/23 04:03:40;;;;;;;5.10;4.65;;;19.10;99.90;;;;;;4962983;28;20019;-82
2022/07/23 04:06:06;;;;;;;5.20;4.70;;;19.10;99.90;;;;;;4946253;28;20025;-82
2022/07/23 04:08:32;;;;;;;4.40;4.00;;;19.20;99.90;;;;;;4958751;28;20049;-82
2022/07/23 04:10:58;;;;;;;5.05;4.63;;;19.20;99.90;;;;;;4983099;28;20484;-82
2022/07/23 04:13:23;;;;;;;4.80;4.40;;;19.20;99.90;;;;;;4992127;28;20027;-81
2022/07/23 04:15:50;;;;;;;4.45;4.05;;;19.30;99.90;;;;;;4969075;28;20386;-83
2022/07/23 04:18:17;;;;;;;4.53;4.13;;;19.30;99.90;;;;;;4977283;28;20070;-84
2022/07/23 04:20:43;;;;;;;5.50;5.10;;;19.30;99.90;;;;;;4985717;28;20026;-82
2022/07/23 04:23:09;;;;;;;5.53;5.03;;;19.40;99.90;;;;;;4984393;28;20056;-82
2022/07/23 04:25:35;;;;;;;4.63;4.32;;;19.40;99.90;;;;;;5002359;28;20019;-82
2022/07/23 04:28:01;;;;;;;5.30;4.90;;;19.40;99.90;;;;;;4989394;28;20067;-82
2022/07/23 04:30:26;;;;;;;4.47;4.10;;;19.40;99.90;;;;;;4983003;28;20034;-82
2022/07/23 04:32:52;;;;;;;4.45;4.10;;;19.50;99.90;;;;;;4982340;28;20027;-82
2022/07/23 04:35:18;;;;;;;4.80;4.40;;;19.50;99.90;;;;;;4982712;28;20084;-82
2022/07/23 04:37:43;;;;;;;4.10;3.80;;;19.50;99.90;;;;;;4961178;28;20085;-82
2022/07/23 04:40:10;;;;;;;4.43;4.10;;;19.60;99.90;;;;;;4955512;28;20031;-82
2022/07/23 04:42:35;;;;;;;3.65;3.35;;;19.60;99.90;;;;;;4964777;28;20019;-82
2022/07/23 04:45:01;;;;;;;4.20;3.90;;;19.60;99.90;;;;;;4982386;28;20029;-83
2022/07/23 04:47:27;;;;;;;4.28;3.92;;;19.70;99.90;;;;;;4989678;28;20030;-83
2022/07/23 04:49:52;;;;;;;4.07;3.78;;;19.70;99.90;;;;;;4995522;28;20030;-82
2022/07/23 04:52:18;;;;;;;4.97;4.47;;;19.70;99.90;;;;;;5001592;28;20026;-83
2022/07/23 04:54:43;;;;;;;4.72;4.32;;;19.70;99.90;;;;;;4983947;28;20022;-82
2022/07/23 04:57:09;;;;;;;5.03;4.63;;;19.70;99.90;;;;;;5001739;28;20031;-82
2022/07/23 04:59:35;;;;;;;5.38;4.55;;;19.70;99.90;;;;;;4973771;28;20050;-82
2022/07/23 05:02:00;;;;;;;4.68;4.38;;;19.80;99.90;;;;;;4963974;28;20031;-82
2022/07/23 05:04:26;;;;;;;4.22;3.88;;;19.90;99.90;;;;;;4966310;29;20027;-82
2022/07/23 05:06:52;;;;;;;5.57;5.18;;;19.90;99.90;;;;;;4974702;28;20027;-81
2022/07/23 05:09:17;;;;;;;5.15;4.68;;;19.90;99.90;;;;;;4987315;28;20091;-82
2022/07/23 05:11:43;;;;;;;5.45;5.00;;;20.00;99.90;;;;;;4996668;28;20022;-82
2022/07/23 05:14:09;;;;;;;5.38;4.88;;;20.00;99.90;;;;;;4994013;28;20093;-81
2022/07/23 05:16:34;;;;;;;4.97;4.57;;;20.00;99.90;;;;;;4981468;28;20027;-82
2022/07/23 05:19:00;;;;;;;5.13;4.72;;;20.10;99.90;;;;;;4984182;28;20019;-82
2022/07/23 05:21:25;;;;;;;5.22;4.72;;;20.10;99.90;;;;;;4959164;28;20548;-82
2022/07/23 05:23:51;;;;;;;5.07;4.68;;;20.10;99.90;;;;;;4941727;29;20027;-82
2022/07/23 05:26:17;;;;;;;4.82;4.53;;;20.10;99.90;;;;;;4959785;28;20636;-82
2022/07/23 05:28:42;;;;;;;6.18;5.53;;;20.00;99.90;;;;;;4942974;28;20446;-82
2022/07/23 05:31:08;;;;;;;4.72;4.43;;;20.00;99.90;;;;;;4957942;28;20157;-82
2022/07/23 05:33:34;;;;;;;4.78;4.40;;;20.00;99.90;;;;;;4980834;28;20077;-82
2022/07/23 05:36:03;;;;;;;7.15;5.30;;;20.00;99.90;;;;;;4968738;28;20081;-82
2022/07/23 05:38:30;;;;;;;5.53;5.10;;;19.90;99.90;;;;;;4985861;28;20035;-83
2022/07/23 05:40:56;;;;;;;5.75;5.25;;;19.90;99.90;;;;;;4975086;28;20027;-81
2022/07/23 05:43:21;;;;;;;5.10;4.80;;;19.90;99.90;;;;;;4951066;29;20031;-83
2022/07/23 05:45:47;;;;;;;5.63;5.18;;;19.90;99.90;;;;;;4969220;28;20034;-82
2022/07/23 05:48:13;;;;;;;5.78;5.28;;;20.00;99.90;;;;;;4978809;28;20126;-82
2022/07/23 05:50:38;;;;;;;6.43;5.88;;;20.00;99.90;;;;;;4987225;28;20038;-82
2022/07/23 05:53:04;;;;;;;6.20;5.70;;;20.10;99.90;;;;;;4965795;29;20493;-79
2022/07/23 05:55:31;;;;;;;6.05;5.47;;;20.10;99.90;;;;;;4961365;29;20035;-79
2022/07/23 05:57:58;;;;;;;6.80;6.22;;;20.20;99.90;;;;;;4959239;28;20361;-79
2022/07/23 06:00:25;;;;;;;6.47;5.85;;;20.20;99.90;;;;;;4946581;28;20039;-78
2022/07/23 06:02:51;;;;;;;6.57;6.07;;;20.30;99.90;;;;;;4982281;28;20086;-79
2022/07/23 06:05:17;;;;;;;5.63;5.22;;;20.30;99.90;;;;;;4971599;28;20034;-79
2022/07/23 06:07:43;;;;;;;5.95;5.45;;;20.40;99.90;;;;;;4991773;28;20086;-79
2022/07/23 06:10:09;;;;;;;6.15;5.60;;;20.40;99.90;;;;;;4993352;28;20138;-79
2022/07/23 06:12:35;;;;;;;6.03;5.55;;;20.40;99.90;;;;;;4972499;29;20046;-79
2022/07/23 06:15:01;;;;;;;6.43;5.93;;;20.50;99.90;;;;;;4971379;29;20523;-79
2022/07/23 06:17:27;;;;;;;6.38;5.88;;;20.60;99.90;;;;;;4984760;28;20050;-78
2022/07/23 06:19:53;;;;;;;6.95;6.35;;;20.60;99.90;;;;;;5001868;28;20042;-78
2022/07/23 06:22:19;;;;;;;6.60;6.07;;;20.70;99.90;;;;;;4992780;28;20098;-80
2022/07/23 06:24:45;;;;;;;7.53;6.90;;;20.60;99.90;;;;;;4977418;28;20165;-79
2022/07/23 06:27:10;;;;;;;7.07;6.50;;;20.60;99.90;;;;;;4977779;28;20173;-78
2022/07/23 06:29:36;;;;;;;6.70;6.20;;;20.60;99.90;;;;;;4982665;28;20049;-78
2022/07/23 06:32:02;;;;;;;6.65;6.03;;;20.60;99.90;;;;;;4973112;28;20496;-79
2022/07/23 06:34:28;;;;;;;6.68;6.10;;;20.70;99.90;;;;;;4976905;28;20093;-80
2022/07/23 06:36:53;;;;;;;7.07;6.38;;;20.70;99.90;;;;;;4976347;28;20376;-79
2022/07/23 06:39:19;;;;;;;7.93;7.20;;;20.70;99.90;;;;;;4974937;28;20464;-78
2022/07/23 06:41:45;;;;;;;7.50;6.80;;;20.70;99.90;;;;;;4957829;28;20042;-79
2022/07/23 06:44:10;;;;;;;7.82;7.00;;;20.80;99.90;;;;;;4976771;28;20027;-78
2022/07/23 06:46:36;;;;;;;7.60;6.80;;;20.80;99.90;;;;;;4978045;28;20030;-79
2022/07/23 06:49:03;;;;;;;7.72;7.00;;;20.80;99.90;;;;;;4978059;28;20427;-79
2022/07/23 06:51:29;;;;;;;8.35;7.50;;;20.80;99.90;;;;;;4964265;28;20035;-79
2022/07/23 06:53:55;;;;;;;7.65;6.95;;;20.80;99.90;;;;;;4976969;28;20039;-80
2022/07/23 06:56:21;;;;;;;7.10;6.50;;;20.90;99.90;;;;;;4976799;28;20134;-80
2022/07/23 06:58:46;;;;;;;7.43;6.82;;;20.90;99.90;;;;;;4976359;28;20099;-79
2022/07/23 07:01:12;;;;;;;7.10;6.47;;;21.00;99.90;;;;;;4973944;28;20034;-79
2022/07/23 07:03:37;;;;;;;7.38;6.78;;;21.10;99.90;;;;;;4975551;28;20078;-79
2022/07/23 07:06:03;;;;;;;6.78;6.18;;;21.20;99.90;;;;;;4976027;28;20587;-79
2022/07/23 07:08:29;;;;;;;7.28;6.68;;;21.40;99.90;;;;;;4975648;28;20364;-80
2022/07/23 07:10:55;;;;;;;6.70;6.18;;;21.40;99.90;;;;;;4976645;28;20089;-80
2022/07/23 07:13:20;;;;;;;7.07;6.55;;;21.40;99.90;;;;;;4977033;28;20093;-80
2022/07/23 07:15:46;;;;;;;6.60;6.00;;;21.50;99.90;;;;;;4977733;28;20027;-80
2022/07/23 07:18:12;;;;;;;5.97;5.47;;;21.50;99.90;;;;;;4970376;28;20538;-80
2022/07/23 07:20:37;;;;;;;6.35;5.85;;;21.40;99.90;;;;;;4990758;28;20023;-81
2022/07/23 07:23:03;;;;;;;6.13;5.63;;;21.50;99.90;;;;;;4977831;28;20023;-81
2022/07/23 07:25:29;;;;;;;6.53;6.00;;;21.50;99.90;;;;;;4977571;28;20049;-81
2022/07/23 07:27:54;;;;;;;7.05;6.47;;;21.60;99.90;;;;;;4978871;28;20027;-81
2022/07/23 07:30:20;;;;;;;6.53;6.03;;;21.60;99.90;;;;;;4977844;28;20227;-81
2022/07/23 07:32:46;;;;;;;6.75;6.15;;;21.70;99.90;;;;;;4976134;28;20027;-80
2022/07/23 07:35:11;;;;;;;6.57;6.05;;;21.80;99.90;;;;;;4976931;28;20019;-80
2022/07/23 07:37:37;;;;;;;7.43;6.72;;;21.90;99.90;;;;;;4959258;28;20027;-80
2022/07/23 07:40:03;;;;;;;6.68;6.07;;;22.00;99.90;;;;;;4957506;28;20049;-80
2022/07/23 07:42:29;;;;;;;6.78;6.18;;;22.00;99.90;;;;;;4973132;28;20034;-80
2022/07/23 07:44:54;;;;;;;6.22;5.72;;;22.00;99.90;;;;;;4978339;28;20025;-81
2022/07/23 07:47:20;;;;;;;6.18;5.65;;;21.90;99.90;;;;;;4961265;28;20487;-80
2022/07/23 07:49:46;;;;;;;7.05;6.43;;;22.00;99.90;;;;;;4959758;28;20433;-80
2022/07/23 07:52:11;;;;;;;7.22;6.63;;;22.00;99.90;;;;;;4963552;28;20483;-80
2022/07/23 07:54:37;;;;;;;7.25;6.55;;;22.00;99.90;;;;;;4978978;28;20049;-80
2022/07/23 07:57:03;;;;;;;7.05;6.35;;;22.00;99.90;;;;;;4980753;28;20475;-80
2022/07/23 07:59:28;;;;;;;8.85;6.32;;;22.10;99.90;;;;;;4961904;28;20121;-80
2022/07/23 08:01:54;;;;;;;7.78;6.32;;;22.20;99.90;;;;;;4971619;28;20026;-80
2022/07/23 08:04:20;;;;;;;7.43;6.72;;;22.20;99.90;;;;;;4982709;28;20023;-81
2022/07/23 08:06:46;;;;;;;6.95;6.35;;;22.30;99.90;;;;;;4985074;28;20030;-80
2022/07/23 08:09:11;;;;;;;6.65;6.05;;;22.40;99.90;;;;;;4983359;28;20034;-80
2022/07/23 08:11:37;;;;;;;6.47;5.93;;;22.50;99.90;;;;;;4984345;28;20109;-82
2022/07/23 08:14:03;;;;;;;6.63;6.03;;;22.50;99.90;;;;;;4964188;28;20019;-82
2022/07/23 08:16:29;;;;;;;6.72;6.13;;;22.50;99.60;;;;;;4966665;28;20022;-81
2022/07/23 08:18:54;;;;;;;6.60;6.10;;;22.50;98.70;;;;;;4987203;28;20387;-81
2022/07/23 08:21:20;;;;;;;7.18;6.43;;;22.50;98.40;;;;;;4977060;28;20094;-82
2022/07/23 08:23:46;;;;;;;6.05;5.55;;;22.60;97.70;;;;;;4976743;28;20019;-80
2022/07/23 08:26:12;;;;;;;6.38;5.78;;;22.60;97.10;;;;;;4981407;28;20019;-81
2022/07/23 08:28:38;;;;;;;7.25;6.60;;;22.80;96.60;;;;;;4964165;28;20027;-80
2022/07/23 08:31:05;;;;;;;7.32;6.63;;;22.90;95.70;;;;;;4980082;28;20034;-82
2022/07/23 08:33:31;;;;;;;8.70;6.25;;;23.00;95.10;;;;;;4964155;28;20030;-79
2022/07/23 08:35:56;;;;;;;6.07;5.47;;;23.20;94.70;;;;;;4981289;28;20037;-80
2022/07/23 08:38:22;;;;;;;5.80;5.30;;;23.30;94.00;;;;;;4981568;28;20026;-82
2022/07/23 08:40:51;;;;;;;6.72;5.47;;;23.30;93.40;;;;;;4981174;28;20078;-83
2022/07/23 08:43:25;;;;;;;7.10;5.78;;;23.50;93.00;;;;;;4969023;28;20034;-83
2022/07/23 08:45:53;;;;;;;6.10;5.53;;;23.60;91.90;;;;;;4980669;28;20035;-84
2022/07/23 08:48:22;;;;;;;5.35;4.90;;;24.00;91.30;;;;;;4985553;28;20054;-83
2022/07/23 08:50:49;;;;;;;6.90;6.30;;;24.30;90.40;;;;;;4963159;29;20095;-83
2022/07/23 08:53:17;;;;;;;5.60;5.10;;;24.50;89.00;;;;;;4961985;28;20034;-84
2022/07/23 08:55:49;;;;;;;6.45;5.40;;;24.60;87.90;;;;;;4980068;28;20023;-80
2022/07/23 08:58:15;;;;;;;5.68;5.05;;;24.70;89.20;;;;;;4980726;28;20027;-81
2022/07/23 09:00:41;;;;;;;5.72;5.13;;;24.80;85.80;;;;;;4961746;28;20031;-80
2022/07/23 09:03:14;;;;;;;5.80;5.30;;;24.70;84.70;;;;;;4978762;28;20022;-80
2022/07/23 09:05:39;;;;;;;5.13;4.63;;;24.70;84.60;;;;;;4961231;28;20054;-81
2022/07/23 09:08:17;;;;;;;5.20;4.80;;;24.70;84.40;;;;;;4979093;28;20034;-80
2022/07/23 09:10:54;;;;;;;5.63;5.13;;;24.80;86.20;;;;;;4978878;28;20480;-82
2022/07/23 09:13:26;;;;;;;6.57;5.82;;;24.80;84.50;;;;;;4945948;29;20058;-81
2022/07/23 09:15:53;;;;;;;5.75;5.30;;;24.80;83.80;;;;;;4974500;28;20039;-82
2022/07/23 09:18:19;;;;;;;6.68;5.32;;;24.80;84.20;;;;;;5002677;28;20142;-81
2022/07/23 09:20:45;;;;;;;6.45;5.13;;;24.70;84.50;;;;;;4992110;28;20110;-82
2022/07/23 09:23:10;;;;;;;6.85;5.78;;;24.70;85.10;;;;;;4985280;28;20027;-80
2022/07/23 09:25:36;;;;;;;6.20;5.60;;;24.70;80.60;;;;;;4963712;29;20109;-80
2022/07/23 09:28:02;;;;;;;6.10;4.88;;;24.90;80.60;;;;;;4960353;28;20035;-81
2022/07/23 09:30:34;;;;;;;7.10;5.40;;;25.10;79.60;;;;;;4961636;29;20054;-81
2022/07/23 09:33:07;;;;;;;5.30;4.88;;;25.30;79.20;;;;;;4970123;28;20083;-83
2022/07/23 09:35:54;;;;;;;7.20;5.10;;;25.60;79.40;;;;;;4984348;28;20043;-81
2022/07/23 09:38:25;;;;;;;5.47;5.03;;;25.90;78.20;;;;;;4979222;28;20023;-80
2022/07/23 09:41:10;;;;;;;6.10;5.60;;;26.10;76.70;;;;;;4984377;28;20022;-81
2022/07/23 09:43:36;;;;;;;5.75;5.28;;;26.20;75.50;;;;;;4980324;28;20091;-82
2022/07/23 09:46:23;;;;;;;5.75;5.25;;;26.40;75.30;;;;;;4977882;28;20078;-80
2022/07/23 09:48:51;;;;;;;5.75;5.20;;;26.70;73.70;;;;;;4985716;28;20031;-81
2022/07/23 09:51:34;;;;;;;5.07;4.50;;;26.80;72.70;;;;;;4978354;28;20026;-81
2022/07/23 09:54:00;;;;;;;5.25;4.78;;;27.00;72.20;;;;;;4975592;28;20079;-82
2022/07/23 09:56:27;;;;;;;6.75;5.53;;;27.20;71.40;;;;;;4964201;29;20082;-82
2022/07/23 09:59:04;;;;;;;5.88;5.38;;;27.50;67.80;;;;;;4965029;29;20055;-82
2022/07/23 10:01:31;;;;;;;5.63;5.00;;;27.80;66.30;;;;;;4965535;28;20095;-81
2022/07/23 10:03:58;;;;;;;6.20;4.43;;;28.00;65.20;;;;;;4967181;28;20019;-82
2022/07/23 10:06:24;;;;;;;6.20;5.68;;;28.20;63.70;;;;;;4985014;28;20055;-81
2022/07/23 10:08:53;;;;;;;5.95;4.80;;;28.00;64.00;;;;;;4991267;28;20033;-81
2022/07/23 10:11:19;;;;;;;6.78;4.97;;;27.90;63.60;;;;;;4996326;28;20122;-81
2022/07/23 10:13:59;;;;;;;6.50;4.43;;;;;;;;;;4996604;28;20023;-81
2022/07/23 10:16:26;;;;;;;5.07;4.47;;;28.10;60.50;;;;;;4996731;28;20018;-81
2022/07/23 10:18:52;;;;;;;5.93;5.38;;;28.40;60.10;;;;;;4999546;28;20523;-80
2022/07/23 10:21:49;;;;;;;5.30;4.80;;;28.80;58.60;;;;;;4996217;28;20025;-82
2022/07/23 10:24:30;;;;;;;5.78;4.95;;;29.20;58.30;;;;;;4990866;28;20018;-83
2022/07/23 10:27:39;;;;;;;6.35;4.65;;;29.20;57.30;;;;;;4996148;28;20050;-81
2022/07/23 10:30:14;;;;;;;6.63;4.70;;;29.30;57.20;;;;;;4951942;28;20023;-81
2022/07/23 10:32:53;;;;;;;4.85;4.45;;;29.40;56.90;;;;;;4979777;28;20073;-81
2022/07/23 10:35:19;;;;;;;5.30;4.43;;;;;;;;;;4987652;28;20034;-83
2022/07/23 10:37:51;;;;;;;6.75;4.70;;;29.40;55.70;;;;;;4967252;28;20039;-83
2022/07/23 10:44:32;;;;;;;8.73;5.03;;;29.50;55.30;;;;;;4976700;28;20041;-85
2022/07/23 10:47:43;;;;;;;5.30;4.60;;;29.10;55.60;;;;;;4927793;28;20026;-84
2022/07/23 10:51:22;;;;;;;5.30;4.80;;;28.90;56.30;;;;;;4915337;29;20037;-83
2022/07/23 10:54:51;;;;;;;4.22;3.92;;;29.00;57.30;;;;;;4921230;29;20032;-84
2022/07/23 10:57:48;;;;;;;7.25;4.60;;;29.20;55.90;;;;;;4889992;29;20107;-83
2022/07/23 11:00:26;;;;;;;6.03;4.13;;;29.30;54.60;;;;;;4923970;29;20064;-84
2022/07/23 11:02:54;;;;;;;4.80;4.40;;;29.30;53.70;;;;;;4979289;28;20038;-84
2022/07/23 11:05:23;;;;;;;4.80;4.38;;;29.30;54.30;;;;;;4953004;28;20020;-86
2022/07/23 11:08:04;;;;;;;5.05;4.38;;;29.40;54.00;;;;;;4973562;28;20070;-84
2022/07/23 11:10:36;;;;;;;5.10;4.70;;;29.50;53.30;;;;;;4974756;28;20041;-84
2022/07/23 11:13:21;;;;;;;5.50;4.57;;;29.40;53.60;;;;;;4983350;28;20305;-84
2022/07/23 11:16:01;;;;;;;5.68;5.05;;;29.20;53.80;;;;;;4981593;28;20494;-83
2022/07/23 11:18:39;;;;;;;5.43;4.85;;;29.10;54.10;;;;;;4991011;28;20126;-83
2022/07/23 11:21:23;;;;;;;8.48;4.82;;;29.00;54.90;;;;;;4985084;28;20090;-82
2022/07/23 11:23:59;;;;;;;5.30;4.90;;;28.90;54.10;;;;;;5002472;28;20023;-84
2022/07/23 11:26:40;;;;;;;5.10;4.50;;;28.80;55.30;;;;;;4984893;28;20475;-84
2022/07/23 11:29:28;;;;;;;5.78;4.82;;;28.80;55.40;;;;;;4946528;29;20035;-84
2022/07/23 11:32:06;;;;;;;5.28;4.53;;;28.70;55.30;;;;;;4946314;29;20046;-83
2022/07/23 11:34:38;;;;;;;5.32;4.82;;;28.50;55.40;;;;;;4964030;28;20035;-83
2022/07/23 11:37:05;;;;;;;;;;;28.40;55.80;;;;;;4981589;28;20019;-85
2022/07/23 11:39:32;;;;;;;5.72;5.00;;;28.20;56.00;;;;;;4992669;28;19924;-85
2022/07/23 11:41:59;;;;;;;6.32;5.10;;;28.10;56.50;;;;;;5013889;28;20027;-83
2022/07/23 11:44:30;;;;;;;7.22;4.85;;;28.00;56.50;;;;;;4997147;28;20026;-85
2022/07/23 11:46:56;;;;;;;5.50;4.45;;;27.80;57.00;;;;;;4995495;28;20018;-83
2022/07/23 11:49:22;;;;;;;6.95;5.15;;;27.70;57.30;;;;;;4985636;28;20034;-84
2022/07/23 11:52:08;;;;;;;6.22;5.35;;;27.60;57.30;;;;;;4981066;28;20415;-85
2022/07/23 11:54:36;;;;;;;7.30;6.18;;;27.60;57.50;;;;;;4994569;28;20022;-84
2022/07/23 11:57:03;;;;;;;6.13;5.15;;;27.70;56.90;;;;;;4980350;28;20093;-82
2022/07/23 11:59:33;;;;;;;6.55;5.20;;;27.60;57.40;;;;;;4963993;28;20388;-85
2022/07/23 12:02:01;;;;;;;6.68;5.07;;;27.60;57.40;;;;;;4997316;28;20515;-83
2022/07/23 12:04:44;;;;;;;7.43;5.57;;;27.60;57.70;;;;;;5004551;28;20027;-85
2022/07/23 12:07:23;;;;;;;7.03;6.10;;;27.60;58.10;;;;;;4979073;28;20024;-84
2022/07/23 12:09:48;;;;;;;6.45;5.80;;;27.40;58.40;;;;;;4979477;28;20039;-86
2022/07/23 12:12:14;;;;;;;6.15;5.40;;;27.30;58.60;;;;;;4967128;29;20050;-83
2022/07/23 12:14:54;;;;;;;8.82;5.90;;;27.10;59.40;;;;;;4961508;29;20477;-83
2022/07/23 12:17:26;;;;;;;11.13;5.78;;;27.00;59.70;;;;;;4968530;28;20014;-85
2022/07/23 12:19:52;;;;;;;;;;;26.90;59.90;;;;;;4998955;28;20027;-86
2022/07/23 12:22:18;;;;;;;6.97;4.88;;;26.90;60.50;;;;;;5005834;28;20339;-85
2022/07/23 12:25:04;;;;;;;6.38;5.75;;;26.80;60.90;;;;;;5001143;28;20376;-84
2022/07/23 12:27:30;;;;;;;5.95;5.45;;;26.80;61.20;;;;;;4985779;28;20520;-83
2022/07/23 12:29:56;;;;;;;5.68;4.97;;;26.70;61.60;;;;;;4985252;28;20125;-85
2022/07/23 12:32:30;;;;;;;6.20;5.30;;;26.70;61.40;;;;;;5007220;28;20542;-84
2022/07/23 12:35:07;;;;;;;5.32;4.60;;;26.60;61.90;;;;;;4946254;29;20038;-86
2022/07/23 12:37:41;;;;;;;6.15;5.55;;;26.50;62.50;;;;;;4948023;28;20019;-84
2022/07/23 12:40:30;;;;;;;7.28;4.78;;;26.50;62.50;;;;;;4963119;28;20476;-84
2022/07/23 12:43:23;;;;;;;6.68;5.40;;;26.40;62.80;;;;;;4982223;28;20109;-83
2022/07/23 12:45:53;;;;;;;6.15;5.00;;;26.40;63.30;;;;;;4975427;28;20085;-83
2022/07/23 12:48:29;;;;;;;5.95;5.10;;;26.40;63.20;;;;;;4957516;28;20038;-85
2022/07/23 12:51:00;;;;;;;6.28;5.60;;;26.40;62.70;;;;;;4980016;28;20507;-85
2022/07/23 12:53:30;;;;;;;6.53;5.85;;;26.40;62.80;;;;;;4982257;28;20030;-85
2022/07/23 12:56:03;;;;;;;5.78;5.28;;;26.40;62.80;;;;;;4965178;28;20034;-84
2022/07/23 12:58:50;;;;;;;6.72;5.57;;;26.40;62.80;;;;;;4978432;28;20489;-85
2022/07/23 13:01:24;;;;;;;6.18;5.38;;;26.40;62.80;;;;;;4965043;28;20146;-83